Time;durP1;ratioP1;P1;durP2;ratioP2;P2;SDS_P1;SDS_P2;PMS_P1;PMS_P2;Temp;Humidity;BMP_temperature;BMP_pressure;BME280_temperature;BME280_humidity;BME280_pressure;Samples;Min_cycle;Max_cycle;Signal;HPM_P1;HPM_P2
2022/03/16 00:01:14;;;;;;;19.88;17.48;;;;;;;;;;5060346;28;20141;-68
2022/03/16 00:03:39;;;;;;;18.52;16.52;;;;;;;;;;5060580;28;20039;-67
2022/03/16 00:06:04;;;;;;;21.20;16.65;;;;;;;;;;5062141;28;20047;-68
2022/03/16 00:08:31;;;;;;;20.55;17.77;;;;;;;;;;5060838;28;20052;-68
2022/03/16 00:10:56;;;;;;;23.23;17.75;;;;;;;;;;5064751;28;20039;-68
2022/03/16 00:13:21;;;;;;;19.13;16.33;;;;;;;;;;5055400;28;20028;-68
2022/03/16 00:15:47;;;;;;;21.15;16.83;;;;;;;;;;5062772;28;20024;-67
2022/03/16 00:18:13;;;;;;;20.77;16.77;;;;;;;;;;5058891;28;20028;-66
2022/03/16 00:20:38;;;;;;;20.42;16.48;;;;;;;;;;5062482;28;20024;-68
2022/03/16 00:23:04;;;;;;;25.30;18.42;;;;;;;;;;5058917;28;20032;-68
2022/03/16 00:25:29;;;;;;;24.95;18.73;;;;;;;;;;5061511;28;20129;-67
2022/03/16 00:27:55;;;;;;;22.13;18.88;;;;;;;;;;5061242;28;20087;-69
2022/03/16 00:30:21;;;;;;;20.85;17.80;;;;;;;;;;5054976;28;20120;-67
2022/03/16 00:32:46;;;;;;;22.00;18.23;;;;;;;;;;5060839;28;20524;-68
2022/03/16 00:35:11;;;;;;;22.67;19.52;;;;;;;;;;5060673;28;20025;-67
2022/03/16 00:37:37;;;;;;;23.40;19.27;;;;;;;;;;5044824;28;20131;-67
2022/03/16 00:40:02;;;;;;;24.80;18.85;;;;;;;;;;5061190;28;20294;-67
2022/03/16 00:42:27;;;;;;;23.75;19.50;;;;;;;;;;5057700;28;20209;-67
2022/03/16 00:44:52;;;;;;;22.02;18.35;;;;;;;;;;5057849;28;20032;-68
2022/03/16 00:47:18;;;;;;;21.60;19.08;;;;;;;;;;5058071;28;20479;-68
2022/03/16 00:49:43;;;;;;;23.85;19.02;;;;;;;;;;5059736;28;20024;-68
2022/03/16 00:52:09;;;;;;;23.08;19.23;;;;;;;;;;5061249;28;20406;-68
2022/03/16 00:54:35;;;;;;;26.15;19.90;;;;;;;;;;5060630;28;20028;-67
2022/03/16 00:57:01;;;;;;;26.95;20.88;;;;;;;;;;5061529;28;20164;-68
2022/03/16 00:59:26;;;;;;;26.08;20.83;;;;;;;;;;5032598;28;20025;-67
2022/03/16 01:01:51;;;;;;;24.70;20.17;;;;;;;;;;5042478;28;20128;-67
2022/03/16 01:04:16;;;;;;;27.35;20.83;;;;;;;;;;5039950;28;20067;-67
2022/03/16 01:06:42;;;;;;;22.27;19.42;;;;;;;;;;5042161;28;20029;-67
2022/03/16 01:09:07;;;;;;;30.50;23.20;;;;;;;;;;5039871;28;20396;-68
2022/03/16 01:11:32;;;;;;;27.35;20.30;;;;;;;;;;5040084;28;20482;-68
2022/03/16 01:13:57;;;;;;;25.55;19.73;;;;;;;;;;5036255;28;20055;-68
2022/03/16 01:16:22;;;;;;;27.42;21.67;;;;;;;;;;5038813;28;20051;-67
2022/03/16 01:18:48;;;;;;;25.23;20.15;;;;;;;;;;5039863;28;20021;-67
2022/03/16 01:21:13;;;;;;;29.67;21.85;;;;;;;;;;5042612;28;20028;-68
2022/03/16 01:23:39;;;;;;;25.67;20.60;;;;;;;;;;5039356;28;20108;-68
2022/03/16 01:26:04;;;;;;;28.98;22.95;;;;;;;;;;5041462;28;20108;-68
2022/03/16 01:28:30;;;;;;;27.77;21.50;;;;;;;;;;5033286;28;20470;-69
2022/03/16 01:30:55;;;;;;;29.10;22.30;;;;;;;;;;5043287;28;20009;-68
2022/03/16 01:33:20;;;;;;;29.02;22.58;;;;;;;;;;5040724;28;20492;-68
2022/03/16 01:35:46;;;;;;;30.50;22.77;;;;;;;;;;5045905;28;20024;-68
2022/03/16 01:38:11;;;;;;;29.98;22.63;;;;;;;;;;5044277;28;20035;-68
2022/03/16 01:40:36;;;;;;;29.23;22.63;;;;;;;;;;5046206;28;20464;-68
2022/03/16 01:43:02;;;;;;;36.35;24.60;;;;;;;;;;5021832;28;20112;-68
2022/03/16 01:45:28;;;;;;;30.13;24.58;;;;;;;;;;5040335;28;20029;-68
2022/03/16 01:47:53;;;;;;;30.38;23.73;;;;;;;;;;5046024;28;20017;-68
2022/03/16 01:50:18;;;;;;;33.33;25.33;;;;;;;;;;5044058;28;20037;-68
2022/03/16 01:52:44;;;;;;;36.20;24.77;;;;;;;;;;5042959;28;20033;-68
2022/03/16 01:55:09;;;;;;;32.63;25.85;;;;;;;;;;5046509;28;20527;-68
2022/03/16 01:57:35;;;;;;;33.58;24.95;;;;;;;;;;5039555;28;20134;-68
2022/03/16 02:00:07;;;;;;;35.33;25.20;;;;;;;;;;5039820;28;20035;-69
2022/03/16 02:02:33;;;;;;;34.70;25.23;;;;;;;;;;5042872;28;20021;-68
2022/03/16 02:04:58;;;;;;;32.22;23.67;;;;;;;;;;5045383;28;20051;-68
2022/03/16 02:07:24;;;;;;;31.20;24.98;;;;;;;;;;5039544;28;20214;-68
2022/03/16 02:09:49;;;;;;;34.75;25.67;;;;;;;;;;5046844;28;20025;-68
2022/03/16 02:12:14;;;;;;;31.30;24.63;;;;;;;;;;5040116;28;20045;-68
2022/03/16 02:14:40;;;;;;;31.15;24.48;;;;;;;;;;5039049;28;20195;-68
2022/03/16 02:17:06;;;;;;;34.63;25.17;;;;;;;;;;5044273;28;20182;-67
2022/03/16 02:19:32;;;;;;;35.63;26.48;;;;;;;;;;5024145;28;20039;-67
2022/03/16 02:22:00;;;;;;;35.88;24.95;;;;;;;;;;5043764;28;20016;-68
2022/03/16 02:24:26;;;;;;;33.47;24.63;;;;;;;;;;5040196;28;20095;-67
2022/03/16 02:26:51;;;;;;;38.97;26.10;;;;;;;;;;5026851;28;20104;-68
2022/03/16 02:29:18;;;;;;;34.03;26.15;;;;;;;;;;5035729;28;20059;-68
2022/03/16 02:31:43;;;;;;;35.42;24.75;;;;;;;;;;5026208;28;20040;-69
2022/03/16 02:34:09;;;;;;;37.67;26.70;;;;;;;;;;5037063;28;20029;-67
2022/03/16 02:36:34;;;;;;;36.65;26.92;;;;;;;;;;5043775;28;20464;-68
2022/03/16 02:38:59;;;;;;;36.47;25.30;;;;;;;;;;5042906;28;20029;-69
2022/03/16 02:41:25;;;;;;;38.25;26.10;;;;;;;;;;5040468;28;20029;-68
2022/03/16 02:43:50;;;;;;;37.55;26.48;;;;;;;;;;5017841;28;20040;-68
2022/03/16 02:46:16;;;;;;;40.75;26.83;;;;;;;;;;5027047;28;20547;-68
2022/03/16 02:48:41;;;;;;;37.97;26.80;;;;;;;;;;5039924;28;20252;-68
2022/03/16 02:51:06;;;;;;;37.47;26.08;;;;;;;;;;5043556;28;20028;-68
2022/03/16 02:53:31;;;;;;;37.17;25.67;;;;;;;;;;5040889;28;20083;-68
2022/03/16 02:55:57;;;;;;;36.28;27.77;;;;;;;;;;5044771;28;20035;-68
2022/03/16 02:58:22;;;;;;;40.30;27.63;;;;;;;;;;5035736;28;20085;-67
2022/03/16 03:00:48;;;;;;;39.20;28.50;;;;;;;;;;5045238;28;20057;-67
2022/03/16 03:03:13;;;;;;;37.85;26.98;;;;;;;;;;5043997;28;20021;-67
2022/03/16 03:05:38;;;;;;;40.22;28.38;;;;;;;;;;5042775;28;20491;-67
2022/03/16 03:08:04;;;;;;;40.08;28.73;;;;;;;;;;5043199;28;20131;-68
2022/03/16 03:10:29;;;;;;;38.85;28.65;;;;;;;;;;5042401;28;20064;-67
2022/03/16 03:12:55;;;;;;;44.75;30.73;;;;;;;;;;5038917;28;20025;-67
2022/03/16 03:15:21;;;;;;;44.50;30.63;;;;;;;;;;5040425;28;20507;-68
2022/03/16 03:17:46;;;;;;;43.40;30.85;;;;;;;;;;5041552;28;20123;-68
2022/03/16 03:20:12;;;;;;;43.80;31.98;;;;;;;;;;5042859;28;20398;-68
2022/03/16 03:22:38;;;;;;;45.22;32.85;;;;;;;;;;5040639;28;20503;-68
2022/03/16 03:25:04;;;;;;;47.05;32.95;;;;;;;;;;5044777;28;20544;-68
2022/03/16 03:27:30;;;;;;;47.72;31.58;;;;;;;;;;5041579;28;20429;-68
2022/03/16 03:29:56;;;;;;;47.28;31.48;;;;;;;;;;5060371;28;20017;-68
2022/03/16 03:32:21;;;;;;;46.50;33.28;;;;;;;;;;5063385;28;20111;-68
2022/03/16 03:34:47;;;;;;;53.20;35.15;;;;;;;;;;5062259;28;20031;-69
2022/03/16 03:37:19;;;;;;;51.65;34.30;;;;;;;;;;5064574;28;20051;-69
2022/03/16 03:39:44;;;;;;;52.72;36.25;;;;;;;;;;5062958;28;20090;-68
2022/03/16 03:42:12;;;;;;;49.03;35.33;;;;;;;;;;5062233;28;20032;-68
2022/03/16 03:44:39;;;;;;;50.63;34.97;;;;;;;;;;5056611;28;20024;-68
2022/03/16 03:47:05;;;;;;;50.90;35.67;;;;;;;;;;5063431;28;20013;-69
2022/03/16 03:49:32;;;;;;;53.63;36.63;;;;;;;;;;5058401;28;20486;-68
2022/03/16 03:51:57;;;;;;;53.38;35.50;;;;;;;;;;5061292;28;20162;-69
2022/03/16 03:54:23;;;;;;;52.08;34.88;;;;;;;;;;5062243;28;20481;-68
2022/03/16 03:56:48;;;;;;;52.00;34.53;;;;;;;;;;5042585;28;20238;-68
2022/03/16 03:59:13;;;;;;;49.97;33.92;;;;;;;;;;5055532;28;20027;-68
2022/03/16 04:01:39;;;;;;;49.05;32.85;;;;;;;;;;5062452;28;20024;-68
2022/03/16 04:04:04;;;;;;;46.47;32.60;;;;;;;;;;5058420;28;20042;-68
2022/03/16 04:06:31;;;;;;;43.17;30.85;;;;;;;;;;5060391;28;20021;-67
2022/03/16 04:08:56;;;;;;;45.67;30.70;;;;;;;;;;5061343;28;20020;-68
2022/03/16 04:11:22;;;;;;;45.85;30.75;;;;;;;;;;5062165;28;20058;-68
2022/03/16 04:13:47;;;;;;;42.13;30.27;;;;;;;;;;5051804;28;20550;-68
2022/03/16 04:16:12;;;;;;;41.78;30.15;;;;;;;;;;5064167;28;20021;-67
2022/03/16 04:18:37;;;;;;;38.90;28.23;;;;;;;;;;5059371;28;20356;-68
2022/03/16 04:21:03;;;;;;;40.30;28.23;;;;;;;;;;5062626;28;20029;-67
2022/03/16 04:23:29;;;;;;;37.67;27.27;;;;;;;;;;5060624;28;20021;-68
2022/03/16 04:25:54;;;;;;;39.65;28.85;;;;;;;;;;5061919;28;20471;-68
2022/03/16 04:28:19;;;;;;;43.85;28.98;;;;;;;;;;5057303;28;20031;-67
2022/03/16 04:30:45;;;;;;;39.17;27.88;;;;;;;;;;5061929;28;20078;-67
2022/03/16 04:33:10;;;;;;;36.65;27.00;;;;;;;;;;5059785;28;20032;-68
2022/03/16 04:35:35;;;;;;;38.30;27.48;;;;;;;;;;5061852;28;20025;-67
2022/03/16 04:38:01;;;;;;;38.63;26.92;;;;;;;;;;5062214;28;20038;-68
2022/03/16 04:40:28;;;;;;;37.88;28.25;;;;;;;;;;5045483;28;20031;-67
2022/03/16 04:42:54;;;;;;;44.95;29.77;;;;;;;;;;5056787;28;20028;-67
2022/03/16 04:45:20;;;;;;;41.15;28.90;;;;;;;;;;5058853;28;20017;-68
2022/03/16 04:47:45;;;;;;;40.05;28.77;;;;;;;;;;5042433;28;20024;-68
2022/03/16 04:50:11;;;;;;;41.20;28.58;;;;;;;;;;5063967;28;20016;-68
2022/03/16 04:52:46;;;;;;;40.85;27.95;;;;;;;;;;5060776;28;20106;-68
2022/03/16 04:55:11;;;;;;;42.38;29.63;;;;;;;;;;5063298;28;20024;-68
2022/03/16 04:57:37;;;;;;;39.03;28.15;;;;;;;;;;5058990;28;20066;-68
2022/03/16 05:00:02;;;;;;;41.67;28.60;;;;;;;;;;5058966;28;20031;-68
2022/03/16 05:02:28;;;;;;;42.42;29.27;;;;;;;;;;5061407;28;20101;-68
2022/03/16 05:04:53;;;;;;;38.92;28.13;;;;;;;;;;5060863;28;20016;-67
2022/03/16 05:07:18;;;;;;;40.45;29.73;;;;;;;;;;5063281;28;20024;-68
2022/03/16 05:09:43;;;;;;;40.33;29.67;;;;;;;;;;5059160;28;20020;-68
2022/03/16 05:12:12;;;;;;;40.80;27.92;;;;;;;;;;5059759;28;20032;-68
2022/03/16 05:14:38;;;;;;;42.78;29.83;;;;;;;;;;5038564;28;20535;-68
2022/03/16 05:17:03;;;;;;;39.40;28.42;;;;;;;;;;5063812;28;20024;-68
2022/03/16 05:19:30;;;;;;;39.70;27.90;;;;;;;;;;5059485;28;20029;-68
2022/03/16 05:21:55;;;;;;;39.97;29.15;;;;;;;;;;5057714;28;20029;-68
2022/03/16 05:24:22;;;;;;;40.80;29.23;;;;;;;;;;5059208;28;20090;-66
2022/03/16 05:26:47;;;;;;;38.45;28.20;;;;;;;;;;5060958;28;20027;-69
2022/03/16 05:29:13;;;;;;;39.38;28.52;;;;;;;;;;5044931;28;20025;-71
2022/03/16 05:31:38;;;;;;;38.05;27.73;;;;;;;;;;5038447;28;20060;-68
2022/03/16 05:34:03;;;;;;;42.45;28.38;;;;;;;;;;5039203;28;20029;-68
2022/03/16 05:36:28;;;;;;;37.78;28.48;;;;;;;;;;5041960;28;20410;-68
2022/03/16 05:38:54;;;;;;;38.38;29.83;;;;;;;;;;5038397;28;20333;-68
2022/03/16 05:41:19;;;;;;;37.30;28.65;;;;;;;;;;5041276;28;20028;-68
2022/03/16 05:43:44;;;;;;;40.08;28.70;;;;;;;;;;5041261;28;20099;-68
2022/03/16 05:46:09;;;;;;;40.33;30.75;;;;;;;;;;5043136;28;20140;-68
2022/03/16 05:48:35;;;;;;;40.47;30.50;;;;;;;;;;5038849;28;20124;-68
2022/03/16 05:51:00;;;;;;;40.83;29.52;;;;;;;;;;5042046;28;20458;-68
2022/03/16 05:53:25;;;;;;;44.60;31.75;;;;;;;;;;5038375;28;20063;-67
2022/03/16 05:55:50;;;;;;;38.10;29.65;;;;;;;;;;5038913;28;20075;-67
2022/03/16 05:58:16;;;;;;;40.00;29.42;;;;;;;;;;5032849;28;20467;-68
2022/03/16 06:00:42;;;;;;;42.00;31.20;;;;;;;;;;5040431;28;20025;-69
2022/03/16 06:03:07;;;;;;;40.85;30.45;;;;;;;;;;5038999;28;20140;-67
2022/03/16 06:05:33;;;;;;;41.10;29.88;;;;;;;;;;5042244;28;20510;-67
2022/03/16 06:07:59;;;;;;;44.88;31.70;;;;;;;;;;5036658;28;20130;-70
2022/03/16 06:10:25;;;;;;;44.35;31.15;;;;;;;;;;5042341;28;20021;-68
2022/03/16 06:12:50;;;;;;;40.50;30.75;;;;;;;;;;5036581;28;20482;-68
2022/03/16 06:15:15;;;;;;;41.50;31.25;;;;;;;;;;5035866;28;20055;-68
2022/03/16 06:17:41;;;;;;;38.60;29.27;;;;;;;;;;5040200;28;20483;-68
2022/03/16 06:20:06;;;;;;;42.25;30.58;;;;;;;;;;5025819;28;20055;-68
2022/03/16 06:22:31;;;;;;;43.25;30.52;;;;;;;;;;5044155;28;20060;-68
2022/03/16 06:24:57;;;;;;;40.13;30.00;;;;;;;;;;5041163;28;20391;-68
2022/03/16 06:27:22;;;;;;;39.50;29.38;;;;;;;;;;5041679;28;20019;-69
2022/03/16 06:29:47;;;;;;;40.75;28.80;;;;;;;;;;5038658;28;20111;-68
2022/03/16 06:32:12;;;;;;;39.17;30.15;;;;;;;;;;5045373;28;20051;-68
2022/03/16 06:34:38;;;;;;;37.20;27.80;;;;;;;;;;5043383;28;20115;-69
2022/03/16 06:37:08;;;;;;;37.65;27.65;;;;;;;;;;5025761;28;20033;-68
2022/03/16 06:39:34;;;;;;;39.45;28.17;;;;;;;;;;5043601;28;20032;-68
2022/03/16 06:41:59;;;;;;;39.08;27.88;;;;;;;;;;5043941;28;20408;-68
2022/03/16 06:44:24;;;;;;;38.20;27.77;;;;;;;;;;5036891;28;20024;-67
2022/03/16 06:46:50;;;;;;;34.72;27.40;;;;;;;;;;5042519;28;20017;-69
2022/03/16 06:49:16;;;;;;;35.67;27.35;;;;;;;;;;5043547;28;20021;-68
2022/03/16 06:51:42;;;;;;;33.10;25.92;;;;;;;;;;5045553;28;20095;-69
2022/03/16 06:54:07;;;;;;;34.05;26.17;;;;;;;;;;5024980;28;20041;-68
2022/03/16 06:56:32;;;;;;;34.40;26.95;;;;;;;;;;5044093;28;20025;-68
2022/03/16 06:58:58;;;;;;;33.60;25.88;;;;;;;;;;5036266;28;20106;-67
2022/03/16 07:01:23;;;;;;;36.50;26.73;;;;;;;;;;5044740;28;20447;-69
2022/03/16 07:03:48;;;;;;;33.40;24.83;;;;;;;;;;5041544;28;20028;-67
2022/03/16 07:06:13;;;;;;;31.63;24.38;;;;;;;;;;5046720;28;20021;-68
2022/03/16 07:08:39;;;;;;;34.17;26.25;;;;;;;;;;5042569;28;20028;-67
2022/03/16 07:11:07;;;;;;;30.70;25.10;;;;;;;;;;5042651;28;20235;-68
2022/03/16 07:13:32;;;;;;;32.38;24.52;;;;;;;;;;5036390;28;20029;-67
2022/03/16 07:15:57;;;;;;;29.58;23.92;;;;;;;;;;5041404;28;20021;-67
2022/03/16 07:18:23;;;;;;;32.25;24.30;;;;;;;;;;5043501;28;20199;-68
2022/03/16 07:20:49;;;;;;;29.20;23.05;;;;;;;;;;5043180;28;20051;-68
2022/03/16 07:23:15;;;;;;;32.20;23.55;;;;;;;;;;5045960;28;20022;-68
2022/03/16 07:25:45;;;;;;;29.00;22.90;;;;;;;;;;5044105;28;20017;-68
2022/03/16 07:28:11;;;;;;;30.13;23.55;;;;;;;;;;5035680;28;20224;-68
2022/03/16 07:30:37;;;;;;;27.35;23.27;;;;;;;;;;5045226;28;20491;-68
2022/03/16 07:33:03;;;;;;;29.48;22.30;;;;;;;;;;5039492;28;20280;-69
2022/03/16 07:35:28;;;;;;;26.65;22.02;;;;;;;;;;5043685;28;20260;-67
2022/03/16 07:37:54;;;;;;;28.85;21.73;;;;;;;;;;5042321;28;20052;-67
2022/03/16 07:40:20;;;;;;;28.20;22.85;;;;;;;;;;5043674;28;20070;-70
2022/03/16 07:42:47;;;;;;;27.60;21.08;;;;;;;;;;5039451;28;20319;-67
2022/03/16 07:45:13;;;;;;;27.70;21.27;;;;;;;;;;5036836;28;20021;-68
2022/03/16 07:47:38;;;;;;;24.92;21.63;;;;;;;;;;5042510;28;20411;-69
2022/03/16 07:50:04;;;;;;;25.15;20.40;;;;;;;;;;5041568;28;20020;-69
2022/03/16 07:52:30;;;;;;;25.08;20.48;;;;;;;;;;5042941;28;20068;-68
2022/03/16 07:54:55;;;;;;;24.42;19.67;;;;;;;;;;5043190;28;20032;-68
2022/03/16 07:57:20;;;;;;;25.73;19.27;;;;;;;;;;5042143;28;20037;-68
2022/03/16 07:59:46;;;;;;;24.90;20.27;;;;;;;;;;5037862;28;20036;-67
2022/03/16 08:02:16;;;;;;;24.83;19.50;;;;;;;;;;5042676;28;20501;-68
2022/03/16 08:04:41;;;;;;;23.35;19.60;;;;;;;;;;5042362;28;20472;-68
2022/03/16 08:07:09;;;;;;;25.00;19.13;;;;;;;;;;5039787;28;20253;-68
2022/03/16 08:09:34;;;;;;;24.73;18.98;;;;;;;;;;5043531;28;20021;-67
2022/03/16 08:11:59;;;;;;;22.65;18.00;;;;;;;;;;5043409;28;20029;-68
2022/03/16 08:14:25;;;;;;;21.50;17.25;;;;;;;;;;5036960;28;20029;-67
2022/03/16 08:16:50;;;;;;;20.77;17.90;;;;;;;;;;5042347;28;20120;-68
2022/03/16 08:19:16;;;;;;;19.70;16.65;;;;;;;;;;5042729;28;20048;-67
2022/03/16 08:21:42;;;;;;;22.27;17.40;;;;;;;;;;5042656;28;20112;-67
2022/03/16 08:24:08;;;;;;;20.35;16.52;;;;;;;;;;5020548;28;20265;-68
2022/03/16 08:26:34;;;;;;;22.23;17.10;;;;;;;;;;5044002;28;20028;-68
2022/03/16 08:28:59;;;;;;;20.02;16.48;;;;;;;;;;5035903;28;20013;-67
2022/03/16 08:31:24;;;;;;;19.77;16.45;;;;;;;;;;5045011;28;20119;-67
2022/03/16 08:33:50;;;;;;;19.08;16.02;;;;;;;;;;5039502;28;20111;-68
2022/03/16 08:36:16;;;;;;;19.23;16.38;;;;;;;;;;5040948;28;20484;-69
2022/03/16 08:38:41;;;;;;;20.45;16.38;;;;;;;;;;5040423;28;20024;-67
2022/03/16 08:41:07;;;;;;;21.67;16.65;;;;;;;;;;5041123;28;20025;-67
2022/03/16 08:43:32;;;;;;;19.00;15.50;;;;;;;;;;5036758;28;20112;-69
2022/03/16 08:45:59;;;;;;;20.08;16.52;;;;;;;;;;5041796;28;20099;-69
2022/03/16 08:48:24;;;;;;;17.77;15.15;;;;;;;;;;5039206;28;20430;-68
2022/03/16 08:50:51;;;;;;;18.73;15.15;;;;;;;;;;5042952;28;20021;-69
2022/03/16 08:53:17;;;;;;;15.85;13.80;;;;;;;;;;5036705;28;20059;-68
2022/03/16 08:55:42;;;;;;;18.90;14.52;;;;;;;;;;5043702;28;20112;-67
2022/03/16 08:58:08;;;;;;;18.00;13.88;;;;;;;;;;5037181;28;20027;-68
2022/03/16 09:00:34;;;;;;;17.13;14.25;;;;;;;;;;5025038;28;20124;-67
2022/03/16 09:02:59;;;;;;;15.23;13.48;;;;;;;;;;5037128;28;20437;-67
2022/03/16 09:05:25;;;;;;;16.13;13.90;;;;;;;;;;5040401;28;20071;-67
2022/03/16 09:07:51;;;;;;;19.75;14.13;;;;;;;;;;5040669;28;20025;-68
2022/03/16 09:10:16;;;;;;;16.15;13.15;;;;;;;;;;5038218;28;20063;-68
2022/03/16 09:12:42;;;;;;;15.88;14.00;;;;;;;;;;5039445;28;20037;-68
2022/03/16 09:15:07;;;;;;;17.08;14.18;;;;;;;;;;5038447;28;20448;-68
2022/03/16 09:17:33;;;;;;;15.50;13.75;;;;;;;;;;5039653;28;20456;-68
2022/03/16 09:19:59;;;;;;;15.35;13.27;;;;;;;;;;5038664;28;20372;-67
2022/03/16 09:22:24;;;;;;;15.68;13.10;;;;;;;;;;5040011;28;20045;-67
2022/03/16 09:24:50;;;;;;;17.65;13.10;;;;;;;;;;5041514;28;20376;-67
2022/03/16 09:27:16;;;;;;;16.77;12.25;;;;;;;;;;5035893;28;20417;-68
2022/03/16 09:29:45;;;;;;;15.45;12.82;;;;;;;;;;5039608;28;20075;-69
2022/03/16 09:32:10;;;;;;;16.50;12.00;;;;;;;;;;5037556;28;20067;-69
2022/03/16 09:34:36;;;;;;;13.77;11.88;;;;;;;;;;5039753;28;20061;-69
2022/03/16 09:37:01;;;;;;;15.40;12.48;;;;;;;;;;5037857;28;20044;-68
2022/03/16 09:39:27;;;;;;;15.52;12.77;;;;;;;;;;5040252;28;20032;-69
2022/03/16 09:41:53;;;;;;;13.02;11.65;;;;;;;;;;5041081;28;20378;-68
2022/03/16 09:44:19;;;;;;;13.70;11.93;;;;;;;;;;5013389;28;20303;-68
2022/03/16 09:46:45;;;;;;;18.92;12.93;;;;;;;;;;5040442;28;20023;-68
2022/03/16 09:49:14;;;;;;;14.75;12.85;;;;;;;;;;5037666;28;20043;-68
2022/03/16 09:51:41;;;;;;;12.95;11.55;;;;;;;;;;5042973;28;20029;-68
2022/03/16 09:54:07;;;;;;;14.10;11.73;;;;;;;;;;5035785;28;20132;-68
2022/03/16 09:56:33;;;;;;;13.45;11.73;;;;;;;;;;5044807;28;20507;-67
2022/03/16 09:58:58;;;;;;;13.45;12.05;;;;;;;;;;5038779;28;20028;-68
2022/03/16 10:01:24;;;;;;;12.50;11.20;;;;;;;;;;5027099;28;20047;-68
2022/03/16 10:03:49;;;;;;;18.30;11.73;;;;;;;;;;5044803;28;20109;-69
2022/03/16 10:06:16;;;;;;;13.05;11.75;;;;;;;;;;5043279;28;20024;-68
2022/03/16 10:08:42;;;;;;;13.52;12.10;;;;;;;;;;5044888;28;20458;-68
2022/03/16 10:14:04;;;;;;;14.40;12.15;;;;;;;;;;5040117;28;20024;-67
2022/03/16 10:17:43;;;;;;;15.85;12.20;;;;;;;;;;5045540;28;20040;-68
2022/03/16 10:19:15;;;;;;;14.05;12.20;;;;;;;;;;5041146;28;20029;-68
2022/03/16 10:21:40;;;;;;;14.60;12.98;;;;;;;;;;5047775;28;20029;-68
2022/03/16 10:24:05;;;;;;;13.55;12.15;;;;;;;;;;5042547;28;20036;-68
2022/03/16 10:26:30;;;;;;;13.40;12.00;;;;;;;;;;5047553;28;20029;-67
2022/03/16 10:29:03;;;;;;;16.42;11.98;;;;;;;;;;5040086;28;20033;-69
2022/03/16 10:31:28;;;;;;;;;;;;;;;;;;5043709;28;20025;-67
2022/03/16 10:33:54;;;;;;;13.20;11.77;;;;;;;;;;5039017;28;20018;-67
2022/03/16 10:36:20;;;;;;;13.27;11.88;;;;;;;;;;5043219;28;20209;-68
2022/03/16 10:38:52;;;;;;;15.23;12.20;;;;;;;;;;5041972;28;20109;-68
2022/03/16 10:46:51;;;;;;;13.02;11.70;;;;;;;;;;5064840;28;20082;-68
2022/03/16 10:49:19;;;;;;;12.80;11.50;;;;;;;;;;5060328;28;20024;-68
2022/03/16 10:51:45;;;;;;;14.00;11.35;;;;;;;;;;5046214;28;20028;-68
2022/03/16 10:54:14;;;;;;;13.60;11.13;;;;;;;;;;5061034;28;20384;-68
2022/03/16 10:56:39;;;;;;;12.88;11.45;;;;;;;;;;5064152;28;20021;-68
2022/03/16 10:59:05;;;;;;;13.00;11.57;;;;;;;;;;5050027;28;20035;-66
2022/03/16 11:01:33;;;;;;;13.73;11.73;;;;;;;;;;5042651;28;20131;-68
2022/03/16 11:03:58;;;;;;;13.93;11.65;;;;;;;;;;5039710;28;20090;-67
2022/03/16 11:06:24;;;;;;;13.45;11.60;;;;;;;;;;5041575;28;20023;-67
2022/03/16 11:08:50;;;;;;;14.65;12.52;;;;;;;;;;5042818;28;20363;-68
2022/03/16 11:14:01;;;;;;;13.25;11.95;;;;;;;;;;5040563;28;20028;-67
2022/03/16 11:16:27;;;;;;;13.25;11.93;;;;;;;;;;5041505;28;20029;-68
2022/03/16 11:18:52;;;;;;;14.85;11.85;;;;;;;;;;5043518;28;20078;-67
2022/03/16 11:21:28;;;;;;;17.27;11.93;;;;;;;;;;5041936;28;20104;-67
2022/03/16 11:26:53;;;;;;;13.32;11.95;;;;;;;;;;5044941;28;20060;-69
2022/03/16 11:29:38;;;;;;;13.88;12.02;;;;;;;;;;5037530;28;20010;-69
2022/03/16 11:32:22;;;;;;;14.27;12.77;;;;;;;;;;5044569;28;20017;-69
2022/03/16 11:34:47;;;;;;;14.90;13.43;;;;;;;;;;5041800;28;20040;-68
2022/03/16 11:37:14;;;;;;;14.25;12.75;;;;;;;;;;5042066;28;20471;-68
2022/03/16 11:39:46;;;;;;;13.68;12.20;;;;;;;;;;5064265;28;20029;-68
2022/03/16 11:42:15;;;;;;;13.52;11.77;;;;;;;;;;5062645;28;20020;-69
2022/03/16 11:44:40;;;;;;;12.30;10.98;;;;;;;;;;5055997;28;20419;-68
2022/03/16 11:47:09;;;;;;;14.23;12.50;;;;;;;;;;5064148;28;20017;-68
2022/03/16 11:49:35;;;;;;;14.43;12.88;;;;;;;;;;5061867;28;20027;-68
2022/03/16 11:52:01;;;;;;;14.13;12.65;;;;;;;;;;5062482;28;20357;-69
2022/03/16 11:54:40;;;;;;;14.38;12.55;;;;;;;;;;5059067;28;20075;-69
2022/03/16 11:57:06;;;;;;;14.05;12.65;;;;;;;;;;5063165;28;20023;-68
2022/03/16 11:59:32;;;;;;;15.88;12.90;;;;;;;;;;5055591;28;20055;-68
2022/03/16 12:02:21;;;;;;;14.73;12.95;;;;;;;;;;5062612;28;20521;-68
2022/03/16 12:04:47;;;;;;;13.65;11.93;;;;;;;;;;5059034;28;20100;-68
2022/03/16 12:07:14;;;;;;;14.43;12.65;;;;;;;;;;5061219;28;20026;-67
2022/03/16 12:09:46;;;;;;;13.80;12.30;;;;;;;;;;5060676;28;20421;-71
2022/03/16 12:15:00;;;;;;;14.13;12.25;;;;;;;;;;5059064;28;20191;-67
2022/03/16 12:17:26;;;;;;;14.30;12.77;;;;;;;;;;5059283;28;20025;-68
2022/03/16 12:20:11;;;;;;;14.82;12.00;;;;;;;;;;5059966;28;20027;-69
2022/03/16 12:22:38;;;;;;;13.23;11.82;;;;;;;;;;5060170;28;20028;-68
2022/03/16 12:25:22;;;;;;;13.07;11.77;;;;;;;;;;5061192;28;20016;-68
2022/03/16 12:30:36;;;;;;;14.57;12.45;;;;;;;;;;5060310;28;20036;-69
2022/03/16 12:33:02;;;;;;;14.80;13.05;;;;;;;;;;5061268;28;20043;-68
2022/03/16 12:35:32;;;;;;;14.10;12.60;;;;;;;;;;5059196;28;20123;-68
2022/03/16 12:37:57;;;;;;;17.85;13.23;;;;;;;;;;5060358;28;20031;-68
2022/03/16 12:40:25;;;;;;;14.18;12.02;;;;;;;;;;5059571;28;20020;-67
2022/03/16 12:42:56;;;;;;;15.32;12.52;;;;;;;;;;5059256;28;20541;-67
2022/03/16 12:45:23;;;;;;;17.02;13.82;;;;;;;;;;5047831;28;20155;-68
2022/03/16 12:47:55;;;;;;;15.35;13.00;;;;;;;;;;5042443;28;20017;-68
2022/03/16 12:50:25;;;;;;;19.53;14.17;;;;;;;;;;5041002;28;20024;-66
2022/03/16 12:52:50;;;;;;;17.45;14.43;;;;;;;;;;5042148;28;20162;-66
2022/03/16 12:55:18;;;;;;;15.15;13.40;;;;;;;;;;5039837;28;20048;-67
2022/03/16 12:58:10;;;;;;;15.40;13.75;;;;;;;;;;5037539;28;20032;-67
2022/03/16 13:00:39;;;;;;;15.68;13.88;;;;;;;;;;5036870;28;20031;-67
2022/03/16 13:03:17;;;;;;;14.73;13.18;;;;;;;;;;5040678;28;20354;-68
2022/03/16 13:05:43;;;;;;;15.18;13.57;;;;;;;;;;5041441;28;20025;-67
2022/03/16 13:08:08;;;;;;;17.45;14.30;;;;;;;;;;5041010;28;20043;-68
2022/03/16 13:11:14;;;;;;;16.35;13.52;;;;;;;;;;5042480;28;20400;-67
2022/03/16 13:13:19;;;;;;;16.08;14.38;;;;;;;;;;5034536;28;20144;-66
2022/03/16 13:15:46;;;;;;;17.08;14.05;;;;;;;;;;5041428;28;20020;-68
2022/03/16 13:18:12;;;;;;;15.45;13.15;;;;;;;;;;5042394;28;20104;-68
2022/03/16 13:20:37;;;;;;;16.10;14.40;;;;;;;;;;5039722;28;20094;-66
2022/03/16 13:23:04;;;;;;;15.60;13.93;;;;;;;;;;5041086;28;20024;-68
2022/03/16 13:25:29;;;;;;;15.63;13.85;;;;;;;;;;5039748;28;20017;-68
2022/03/16 13:28:13;;;;;;;15.75;13.80;;;;;;;;;;5038709;28;20426;-68
2022/03/16 13:30:38;;;;;;;15.63;13.82;;;;;;;;;;5036986;28;20044;-67
2022/03/16 13:33:04;;;;;;;16.63;14.43;;;;;;;;;;5042300;28;20025;-68
2022/03/16 13:35:32;;;;;;;18.65;14.48;;;;;;;;;;5033268;28;20399;-69
2022/03/16 13:38:00;;;;;;;16.90;15.07;;;;;;;;;;5039550;28;20021;-68
2022/03/16 13:40:26;;;;;;;16.05;13.90;;;;;;;;;;5037487;28;20032;-68
2022/03/16 13:43:01;;;;;;;19.65;15.68;;;;;;;;;;5037712;28;20029;-68
2022/03/16 13:45:27;;;;;;;19.70;14.30;;;;;;;;;;5046075;28;20020;-68
2022/03/16 13:48:06;;;;;;;17.85;14.90;;;;;;;;;;5039426;28;20021;-68
2022/03/16 13:50:31;;;;;;;17.02;15.18;;;;;;;;;;5039165;28;20039;-67
2022/03/16 13:53:09;;;;;;;17.00;14.65;;;;;;;;;;5038706;28;20033;-69
2022/03/16 13:55:35;;;;;;;17.98;14.60;;;;;;;;;;5036857;28;20568;-70
2022/03/16 13:58:08;;;;;;;18.50;14.60;;;;;;;;;;5034862;28;20045;-66
2022/03/16 14:00:42;;;;;;;19.55;14.57;;;;;;;;;;5035454;28;20017;-67
2022/03/16 14:03:10;;;;;;;19.77;15.45;;;;;;;;;;5039274;28;20502;-67
2022/03/16 14:05:35;;;;;;;19.15;15.38;;;;;;;;;;5038525;28;20092;-67
2022/03/16 14:08:05;;;;;;;18.73;15.00;;;;;;;;;;5040930;28;20463;-67
2022/03/16 14:10:32;;;;;;;20.00;15.30;;;;;;;;;;5039264;28;20021;-68
2022/03/16 14:13:04;;;;;;;16.63;14.65;;;;;;;;;;5037489;28;20112;-68
2022/03/16 14:15:29;;;;;;;19.73;15.03;;;;;;;;;;5035388;28;20414;-67
2022/03/16 14:18:14;;;;;;;19.58;14.88;;;;;;;;;;5039175;28;20127;-67
2022/03/16 14:20:53;;;;;;;18.13;14.70;;;;;;;;;;5038895;28;20115;-66
2022/03/16 14:23:19;;;;;;;20.73;15.43;;;;;;;;;;5038891;28;20047;-68
2022/03/16 14:25:49;;;;;;;17.60;15.35;;;;;;;;;;5020309;28;20550;-67
2022/03/16 14:28:15;;;;;;;17.55;14.60;;;;;;;;;;5034756;28;20417;-68
2022/03/16 14:30:52;;;;;;;18.35;14.95;;;;;;;;;;5037209;28;20408;-68
2022/03/16 14:33:25;;;;;;;16.77;14.98;;;;;;;;;;5041492;28;20068;-66
2022/03/16 14:35:51;;;;;;;20.92;16.08;;;;;;;;;;5040873;28;20025;-67